sensor_id;sensor_type;location;lat;lon;timestamp;P1;durP1;ratioP1;P2;durP2;ratioP2
73869;SDS011;64924;42.140;24.762;2023-08-21T00:00:53;8.00;;;6.80;;
73869;SDS011;64924;42.140;24.762;2023-08-21T00:03:19;17.98;;;6.40;;
73869;SDS011;64924;42.140;24.762;2023-08-21T00:05:44;10.02;;;7.50;;
73869;SDS011;64924;42.140;24.762;2023-08-21T00:08:10;12.65;;;6.97;;
73869;SDS011;64924;42.140;24.762;2023-08-21T00:10:38;11.63;;;7.00;;
73869;SDS011;64924;42.140;24.762;2023-08-21T00:13:05;12.65;;;7.22;;
73869;SDS011;64924;42.140;24.762;2023-08-21T00:15:31;9.75;;;7.30;;
73869;SDS011;64924;42.140;24.762;2023-08-21T00:17:57;12.93;;;6.75;;
73869;SDS011;64924;42.140;24.762;2023-08-21T00:20:22;11.70;;;7.28;;
73869;SDS011;64924;42.140;24.762;2023-08-21T00:22:48;7.95;;;6.47;;
73869;SDS011;64924;42.140;24.762;2023-08-21T00:25:14;13.32;;;8.02;;
73869;SDS011;64924;42.140;24.762;2023-08-21T00:27:39;10.95;;;7.20;;
73869;SDS011;64924;42.140;24.762;2023-08-21T00:30:05;9.65;;;7.00;;
73869;SDS011;64924;42.140;24.762;2023-08-21T00:32:31;9.40;;;6.82;;
73869;SDS011;64924;42.140;24.762;2023-08-21T00:34:57;9.73;;;6.78;;
73869;SDS011;64924;42.140;24.762;2023-08-21T00:37:22;12.30;;;6.45;;
73869;SDS011;64924;42.140;24.762;2023-08-21T00:39:48;9.05;;;6.47;;
73869;SDS011;64924;42.140;24.762;2023-08-21T00:42:14;9.65;;;6.25;;
73869;SDS011;64924;42.140;24.762;2023-08-21T00:44:39;10.43;;;5.90;;
73869;SDS011;64924;42.140;24.762;2023-08-21T00:47:05;7.53;;;5.78;;
73869;SDS011;64924;42.140;24.762;2023-08-21T00:49:30;7.82;;;5.80;;
73869;SDS011;64924;42.140;24.762;2023-08-21T00:51:56;10.85;;;6.30;;
73869;SDS011;64924;42.140;24.762;2023-08-21T00:54:22;6.65;;;5.85;;
73869;SDS011;64924;42.140;24.762;2023-08-21T00:56:47;10.95;;;6.45;;
73869;SDS011;64924;42.140;24.762;2023-08-21T00:59:13;8.73;;;6.07;;
73869;SDS011;64924;42.140;24.762;2023-08-21T01:01:39;8.88;;;5.60;;
73869;SDS011;64924;42.140;24.762;2023-08-21T01:04:06;7.15;;;6.22;;
73869;SDS011;64924;42.140;24.762;2023-08-21T01:06:31;7.68;;;6.25;;
73869;SDS011;64924;42.140;24.762;2023-08-21T01:08:57;10.60;;;6.22;;
73869;SDS011;64924;42.140;24.762;2023-08-21T01:11:34;15.57;;;6.65;;
73869;SDS011;64924;42.140;24.762;2023-08-21T01:16:37;9.52;;;6.57;;
73869;SDS011;64924;42.140;24.762;2023-08-21T01:19:04;8.90;;;6.13;;
73869;SDS011;64924;42.140;24.762;2023-08-21T01:21:37;8.60;;;6.55;;
73869;SDS011;64924;42.140;24.762;2023-08-21T01:24:03;10.57;;;7.00;;
73869;SDS011;64924;42.140;24.762;2023-08-21T01:26:29;8.65;;;6.45;;
73869;SDS011;64924;42.140;24.762;2023-08-21T01:28:54;7.43;;;6.03;;
73869;SDS011;64924;42.140;24.762;2023-08-21T01:31:24;7.35;;;5.78;;
73869;SDS011;64924;42.140;24.762;2023-08-21T01:33:54;7.35;;;5.72;;
73869;SDS011;64924;42.140;24.762;2023-08-21T01:36:23;10.13;;;5.90;;
73869;SDS011;64924;42.140;24.762;2023-08-21T01:38:50;6.95;;;5.93;;
73869;SDS011;64924;42.140;24.762;2023-08-21T01:41:15;9.15;;;6.30;;
73869;SDS011;64924;42.140;24.762;2023-08-21T01:43:41;6.97;;;6.32;;
73869;SDS011;64924;42.140;24.762;2023-08-21T01:46:06;9.45;;;5.85;;
73869;SDS011;64924;42.140;24.762;2023-08-21T01:48:32;8.75;;;6.07;;
73869;SDS011;64924;42.140;24.762;2023-08-21T01:51:00;9.70;;;6.68;;
73869;SDS011;64924;42.140;24.762;2023-08-21T01:53:26;8.82;;;6.18;;
73869;SDS011;64924;42.140;24.762;2023-08-21T01:55:52;9.80;;;6.70;;
73869;SDS011;64924;42.140;24.762;2023-08-21T01:58:17;10.35;;;6.47;;
73869;SDS011;64924;42.140;24.762;2023-08-21T02:00:45;10.90;;;6.28;;
73869;SDS011;64924;42.140;24.762;2023-08-21T02:03:11;9.32;;;6.80;;
73869;SDS011;64924;42.140;24.762;2023-08-21T02:05:38;8.75;;;6.97;;
73869;SDS011;64924;42.140;24.762;2023-08-21T02:08:05;7.88;;;6.20;;
73869;SDS011;64924;42.140;24.762;2023-08-21T02:10:32;12.57;;;7.25;;
73869;SDS011;64924;42.140;24.762;2023-08-21T02:12:57;7.13;;;5.93;;
73869;SDS011;64924;42.140;24.762;2023-08-21T02:15:23;11.23;;;6.15;;
73869;SDS011;64924;42.140;24.762;2023-08-21T02:17:48;8.43;;;6.00;;
73869;SDS011;64924;42.140;24.762;2023-08-21T02:20:14;9.65;;;6.68;;
73869;SDS011;64924;42.140;24.762;2023-08-21T02:22:39;9.20;;;6.55;;
73869;SDS011;64924;42.140;24.762;2023-08-21T02:25:05;10.45;;;6.88;;
73869;SDS011;64924;42.140;24.762;2023-08-21T02:27:31;11.48;;;6.28;;
73869;SDS011;64924;42.140;24.762;2023-08-21T02:29:56;11.07;;;6.60;;
73869;SDS011;64924;42.140;24.762;2023-08-21T02:32:22;12.55;;;6.78;;
73869;SDS011;64924;42.140;24.762;2023-08-21T02:34:47;8.98;;;6.80;;
73869;SDS011;64924;42.140;24.762;2023-08-21T02:37:13;8.90;;;6.50;;
73869;SDS011;64924;42.140;24.762;2023-08-21T02:39:38;9.65;;;6.75;;
73869;SDS011;64924;42.140;24.762;2023-08-21T02:42:04;12.25;;;6.78;;
73869;SDS011;64924;42.140;24.762;2023-08-21T02:44:29;9.75;;;7.32;;
73869;SDS011;64924;42.140;24.762;2023-08-21T02:46:55;11.82;;;6.97;;
73869;SDS011;64924;42.140;24.762;2023-08-21T02:49:20;13.57;;;6.55;;
73869;SDS011;64924;42.140;24.762;2023-08-21T02:51:46;7.82;;;6.90;;
73869;SDS011;64924;42.140;24.762;2023-08-21T02:54:11;7.72;;;6.50;;
73869;SDS011;64924;42.140;24.762;2023-08-21T02:56:38;9.63;;;7.00;;
73869;SDS011;64924;42.140;24.762;2023-08-21T02:59:03;9.90;;;6.60;;
73869;SDS011;64924;42.140;24.762;2023-08-21T03:01:29;9.07;;;6.20;;
73869;SDS011;64924;42.140;24.762;2023-08-21T03:03:54;11.65;;;7.07;;
73869;SDS011;64924;42.140;24.762;2023-08-21T03:06:20;10.43;;;6.93;;
73869;SDS011;64924;42.140;24.762;2023-08-21T03:08:45;10.48;;;7.25;;
73869;SDS011;64924;42.140;24.762;2023-08-21T03:11:11;9.48;;;7.10;;
73869;SDS011;64924;42.140;24.762;2023-08-21T03:13:36;11.13;;;6.95;;
73869;SDS011;64924;42.140;24.762;2023-08-21T03:16:02;10.30;;;6.22;;
73869;SDS011;64924;42.140;24.762;2023-08-21T03:18:30;8.65;;;6.60;;
73869;SDS011;64924;42.140;24.762;2023-08-21T03:20:56;9.52;;;6.75;;
73869;SDS011;64924;42.140;24.762;2023-08-21T03:23:22;7.82;;;6.72;;
73869;SDS011;64924;42.140;24.762;2023-08-21T03:25:47;8.07;;;6.60;;
73869;SDS011;64924;42.140;24.762;2023-08-21T03:28:13;8.85;;;6.45;;
73869;SDS011;64924;42.140;24.762;2023-08-21T03:30:39;9.13;;;6.88;;
73869;SDS011;64924;42.140;24.762;2023-08-21T03:33:05;8.25;;;7.30;;
73869;SDS011;64924;42.140;24.762;2023-08-21T03:35:32;10.50;;;7.70;;
73869;SDS011;64924;42.140;24.762;2023-08-21T03:37:57;11.40;;;6.32;;
73869;SDS011;64924;42.140;24.762;2023-08-21T03:40:23;8.50;;;6.72;;
73869;SDS011;64924;42.140;24.762;2023-08-21T03:42:48;7.65;;;6.88;;
73869;SDS011;64924;42.140;24.762;2023-08-21T03:45:14;16.45;;;7.65;;
73869;SDS011;64924;42.140;24.762;2023-08-21T03:47:39;11.35;;;7.30;;
73869;SDS011;64924;42.140;24.762;2023-08-21T03:50:05;9.75;;;6.90;;
73869;SDS011;64924;42.140;24.762;2023-08-21T03:52:31;14.23;;;7.07;;
73869;SDS011;64924;42.140;24.762;2023-08-21T03:54:56;7.72;;;6.90;;
73869;SDS011;64924;42.140;24.762;2023-08-21T03:57:22;7.75;;;6.95;;
73869;SDS011;64924;42.140;24.762;2023-08-21T03:59:47;8.07;;;7.00;;
73869;SDS011;64924;42.140;24.762;2023-08-21T04:02:13;12.32;;;6.55;;
73869;SDS011;64924;42.140;24.762;2023-08-21T04:04:38;12.52;;;7.20;;
73869;SDS011;64924;42.140;24.762;2023-08-21T04:07:04;10.52;;;6.85;;
73869;SDS011;64924;42.140;24.762;2023-08-21T04:09:29;12.30;;;7.40;;
73869;SDS011;64924;42.140;24.762;2023-08-21T04:11:55;8.10;;;5.97;;
73869;SDS011;64924;42.140;24.762;2023-08-21T04:14:20;9.65;;;6.35;;
73869;SDS011;64924;42.140;24.762;2023-08-21T04:16:46;10.35;;;6.72;;
73869;SDS011;64924;42.140;24.762;2023-08-21T04:19:11;10.57;;;6.40;;
73869;SDS011;64924;42.140;24.762;2023-08-21T04:21:37;7.82;;;6.15;;
73869;SDS011;64924;42.140;24.762;2023-08-21T04:24:02;10.18;;;5.82;;
73869;SDS011;64924;42.140;24.762;2023-08-21T04:26:28;13.07;;;6.20;;
73869;SDS011;64924;42.140;24.762;2023-08-21T04:28:53;9.35;;;6.40;;
73869;SDS011;64924;42.140;24.762;2023-08-21T04:31:19;11.25;;;5.97;;
73869;SDS011;64924;42.140;24.762;2023-08-21T04:33:44;8.80;;;6.18;;
73869;SDS011;64924;42.140;24.762;2023-08-21T04:36:16;11.40;;;6.00;;
73869;SDS011;64924;42.140;24.762;2023-08-21T04:38:42;9.93;;;6.10;;
73869;SDS011;64924;42.140;24.762;2023-08-21T04:41:09;13.30;;;5.85;;
73869;SDS011;64924;42.140;24.762;2023-08-21T04:43:35;8.45;;;6.18;;
73869;SDS011;64924;42.140;24.762;2023-08-21T04:46:00;11.38;;;5.97;;
73869;SDS011;64924;42.140;24.762;2023-08-21T04:48:26;9.77;;;6.57;;
73869;SDS011;64924;42.140;24.762;2023-08-21T04:50:51;9.00;;;6.03;;
73869;SDS011;64924;42.140;24.762;2023-08-21T04:53:17;10.48;;;6.10;;
73869;SDS011;64924;42.140;24.762;2023-08-21T04:55:43;10.32;;;6.53;;
73869;SDS011;64924;42.140;24.762;2023-08-21T04:58:09;9.23;;;6.18;;
73869;SDS011;64924;42.140;24.762;2023-08-21T05:00:35;13.40;;;9.48;;
73869;SDS011;64924;42.140;24.762;2023-08-21T05:03:01;13.55;;;7.82;;
73869;SDS011;64924;42.140;24.762;2023-08-21T05:05:27;14.20;;;8.00;;
73869;SDS011;64924;42.140;24.762;2023-08-21T05:07:53;10.57;;;7.30;;
73869;SDS011;64924;42.140;24.762;2023-08-21T05:10:19;17.73;;;7.60;;
73869;SDS011;64924;42.140;24.762;2023-08-21T05:12:45;15.50;;;7.97;;
73869;SDS011;64924;42.140;24.762;2023-08-21T05:15:11;13.32;;;6.68;;
73869;SDS011;64924;42.140;24.762;2023-08-21T05:17:36;14.23;;;6.93;;
73869;SDS011;64924;42.140;24.762;2023-08-21T05:20:02;7.60;;;6.43;;
73869;SDS011;64924;42.140;24.762;2023-08-21T05:22:28;16.33;;;7.15;;
73869;SDS011;64924;42.140;24.762;2023-08-21T05:24:54;14.38;;;6.45;;
73869;SDS011;64924;42.140;24.762;2023-08-21T05:27:19;15.10;;;6.40;;
73869;SDS011;64924;42.140;24.762;2023-08-21T05:29:45;12.50;;;5.57;;
73869;SDS011;64924;42.140;24.762;2023-08-21T05:32:10;11.52;;;5.65;;
73869;SDS011;64924;42.140;24.762;2023-08-21T05:34:36;9.07;;;5.82;;
73869;SDS011;64924;42.140;24.762;2023-08-21T05:37:02;7.32;;;5.70;;
73869;SDS011;64924;42.140;24.762;2023-08-21T05:39:27;8.30;;;5.93;;
73869;SDS011;64924;42.140;24.762;2023-08-21T05:41:53;10.18;;;5.82;;
73869;SDS011;64924;42.140;24.762;2023-08-21T05:44:19;11.27;;;5.75;;
73869;SDS011;64924;42.140;24.762;2023-08-21T05:46:45;10.68;;;5.68;;
73869;SDS011;64924;42.140;24.762;2023-08-21T05:49:10;8.10;;;5.18;;
73869;SDS011;64924;42.140;24.762;2023-08-21T05:51:36;7.88;;;5.07;;
73869;SDS011;64924;42.140;24.762;2023-08-21T05:54:01;9.25;;;5.38;;
73869;SDS011;64924;42.140;24.762;2023-08-21T05:56:27;9.00;;;5.63;;
73869;SDS011;64924;42.140;24.762;2023-08-21T05:58:52;12.73;;;5.40;;
73869;SDS011;64924;42.140;24.762;2023-08-21T06:01:18;10.43;;;5.05;;
73869;SDS011;64924;42.140;24.762;2023-08-21T06:03:43;11.60;;;5.05;;
73869;SDS011;64924;42.140;24.762;2023-08-21T06:06:09;10.95;;;5.45;;
73869;SDS011;64924;42.140;24.762;2023-08-21T06:08:34;10.50;;;5.22;;
73869;SDS011;64924;42.140;24.762;2023-08-21T06:11:00;9.68;;;5.05;;
73869;SDS011;64924;42.140;24.762;2023-08-21T06:13:25;11.50;;;5.13;;
73869;SDS011;64924;42.140;24.762;2023-08-21T06:15:51;10.38;;;5.10;;
73869;SDS011;64924;42.140;24.762;2023-08-21T06:18:17;12.68;;;5.57;;
73869;SDS011;64924;42.140;24.762;2023-08-21T06:20:43;8.90;;;4.70;;
73869;SDS011;64924;42.140;24.762;2023-08-21T06:23:11;12.82;;;4.88;;
73869;SDS011;64924;42.140;24.762;2023-08-21T06:25:37;9.65;;;5.15;;
73869;SDS011;64924;42.140;24.762;2023-08-21T06:28:03;7.82;;;4.90;;
73869;SDS011;64924;42.140;24.762;2023-08-21T06:30:29;9.93;;;4.93;;
73869;SDS011;64924;42.140;24.762;2023-08-21T06:32:55;7.97;;;4.65;;
73869;SDS011;64924;42.140;24.762;2023-08-21T06:35:21;12.65;;;4.95;;
73869;SDS011;64924;42.140;24.762;2023-08-21T06:37:47;8.02;;;4.55;;
73869;SDS011;64924;42.140;24.762;2023-08-21T06:40:12;12.02;;;4.63;;
73869;SDS011;64924;42.140;24.762;2023-08-21T06:42:38;7.70;;;4.53;;
73869;SDS011;64924;42.140;24.762;2023-08-21T06:45:04;9.40;;;5.45;;
73869;SDS011;64924;42.140;24.762;2023-08-21T06:47:30;8.07;;;4.60;;
73869;SDS011;64924;42.140;24.762;2023-08-21T06:49:56;5.95;;;4.55;;
73869;SDS011;64924;42.140;24.762;2023-08-21T06:52:21;10.93;;;4.97;;
73869;SDS011;64924;42.140;24.762;2023-08-21T06:54:47;8.07;;;5.05;;
73869;SDS011;64924;42.140;24.762;2023-08-21T06:57:13;7.18;;;4.65;;
73869;SDS011;64924;42.140;24.762;2023-08-21T06:59:38;8.70;;;5.35;;
73869;SDS011;64924;42.140;24.762;2023-08-21T07:02:04;8.10;;;4.70;;
73869;SDS011;64924;42.140;24.762;2023-08-21T07:04:30;13.30;;;5.25;;
73869;SDS011;64924;42.140;24.762;2023-08-21T07:06:58;12.88;;;5.13;;
73869;SDS011;64924;42.140;24.762;2023-08-21T07:09:23;11.57;;;4.82;;
73869;SDS011;64924;42.140;24.762;2023-08-21T07:11:49;8.48;;;4.40;;
73869;SDS011;64924;42.140;24.762;2023-08-21T07:14:14;10.43;;;4.30;;
73869;SDS011;64924;42.140;24.762;2023-08-21T07:16:40;8.13;;;4.80;;
73869;SDS011;64924;42.140;24.762;2023-08-21T07:19:05;8.63;;;4.93;;
73869;SDS011;64924;42.140;24.762;2023-08-21T07:21:31;9.63;;;4.65;;
73869;SDS011;64924;42.140;24.762;2023-08-21T07:23:59;8.10;;;4.55;;
73869;SDS011;64924;42.140;24.762;2023-08-21T07:26:25;11.07;;;4.90;;
73869;SDS011;64924;42.140;24.762;2023-08-21T07:28:50;7.68;;;4.55;;
73869;SDS011;64924;42.140;24.762;2023-08-21T07:31:18;10.00;;;4.60;;
73869;SDS011;64924;42.140;24.762;2023-08-21T07:33:43;9.85;;;4.82;;
73869;SDS011;64924;42.140;24.762;2023-08-21T07:36:09;6.82;;;4.28;;
73869;SDS011;64924;42.140;24.762;2023-08-21T07:38:34;8.43;;;4.53;;
73869;SDS011;64924;42.140;24.762;2023-08-21T07:41:06;11.50;;;4.97;;
73869;SDS011;64924;42.140;24.762;2023-08-21T07:43:35;8.40;;;4.72;;
73869;SDS011;64924;42.140;24.762;2023-08-21T07:46:02;6.03;;;4.30;;
73869;SDS011;64924;42.140;24.762;2023-08-21T07:48:28;7.38;;;4.53;;
73869;SDS011;64924;42.140;24.762;2023-08-21T07:50:54;5.93;;;4.60;;
73869;SDS011;64924;42.140;24.762;2023-08-21T07:53:19;8.32;;;4.40;;
73869;SDS011;64924;42.140;24.762;2023-08-21T07:55:45;5.78;;;3.92;;
73869;SDS011;64924;42.140;24.762;2023-08-21T07:58:11;11.57;;;4.70;;
73869;SDS011;64924;42.140;24.762;2023-08-21T08:00:38;10.10;;;4.60;;
73869;SDS011;64924;42.140;24.762;2023-08-21T08:03:04;9.65;;;7.20;;
73869;SDS011;64924;42.140;24.762;2023-08-21T08:05:30;9.63;;;4.88;;
73869;SDS011;64924;42.140;24.762;2023-08-21T08:07:57;10.38;;;5.50;;
73869;SDS011;64924;42.140;24.762;2023-08-21T08:10:23;10.77;;;6.28;;
73869;SDS011;64924;42.140;24.762;2023-08-21T08:12:49;6.55;;;4.38;;
73869;SDS011;64924;42.140;24.762;2023-08-21T08:15:15;7.78;;;4.93;;
73869;SDS011;64924;42.140;24.762;2023-08-21T08:17:41;7.63;;;4.65;;
73869;SDS011;64924;42.140;24.762;2023-08-21T08:20:07;16.33;;;5.28;;
73869;SDS011;64924;42.140;24.762;2023-08-21T08:22:33;9.27;;;4.75;;
73869;SDS011;64924;42.140;24.762;2023-08-21T08:24:58;9.90;;;3.40;;
73869;SDS011;64924;42.140;24.762;2023-08-21T08:27:24;7.75;;;4.00;;
73869;SDS011;64924;42.140;24.762;2023-08-21T08:29:50;11.13;;;7.10;;
73869;SDS011;64924;42.140;24.762;2023-08-21T08:32:15;11.55;;;5.28;;
73869;SDS011;64924;42.140;24.762;2023-08-21T08:34:40;8.77;;;4.63;;
73869;SDS011;64924;42.140;24.762;2023-08-21T08:37:06;9.40;;;5.43;;
73869;SDS011;64924;42.140;24.762;2023-08-21T08:39:31;6.68;;;5.30;;
73869;SDS011;64924;42.140;24.762;2023-08-21T08:42:03;11.45;;;4.85;;
73869;SDS011;64924;42.140;24.762;2023-08-21T08:44:31;8.07;;;4.40;;
73869;SDS011;64924;42.140;24.762;2023-08-21T08:47:00;7.75;;;4.47;;
73869;SDS011;64924;42.140;24.762;2023-08-21T08:49:26;8.70;;;3.95;;
73869;SDS011;64924;42.140;24.762;2023-08-21T08:51:53;9.48;;;4.15;;
73869;SDS011;64924;42.140;24.762;2023-08-21T08:54:20;9.73;;;8.73;;
73869;SDS011;64924;42.140;24.762;2023-08-21T08:56:47;15.85;;;9.77;;
73869;SDS011;64924;42.140;24.762;2023-08-21T08:59:13;12.20;;;5.32;;
73869;SDS011;64924;42.140;24.762;2023-08-21T09:01:43;10.55;;;5.00;;
73869;SDS011;64924;42.140;24.762;2023-08-21T09:06:34;7.70;;;5.45;;
73869;SDS011;64924;42.140;24.762;2023-08-21T09:08:59;7.35;;;5.57;;
73869;SDS011;64924;42.140;24.762;2023-08-21T09:11:25;12.05;;;5.93;;
73869;SDS011;64924;42.140;24.762;2023-08-21T09:13:51;8.05;;;6.43;;
73869;SDS011;64924;42.140;24.762;2023-08-21T09:16:18;11.77;;;7.07;;
73869;SDS011;64924;42.140;24.762;2023-08-21T09:18:48;6.60;;;4.63;;
73869;SDS011;64924;42.140;24.762;2023-08-21T09:21:16;10.15;;;4.80;;
73869;SDS011;64924;42.140;24.762;2023-08-21T09:23:42;6.38;;;4.57;;
73869;SDS011;64924;42.140;24.762;2023-08-21T09:26:08;9.15;;;5.10;;
73869;SDS011;64924;42.140;24.762;2023-08-21T09:28:33;10.63;;;4.07;;
73869;SDS011;64924;42.140;24.762;2023-08-21T09:30:59;8.88;;;3.92;;
73869;SDS011;64924;42.140;24.762;2023-08-21T09:33:27;8.85;;;4.53;;
73869;SDS011;64924;42.140;24.762;2023-08-21T09:35:53;8.40;;;4.50;;
73869;SDS011;64924;42.140;24.762;2023-08-21T09:38:20;6.80;;;4.30;;
73869;SDS011;64924;42.140;24.762;2023-08-21T09:40:50;7.05;;;4.00;;
73869;SDS011;64924;42.140;24.762;2023-08-21T09:43:20;10.02;;;4.13;;
73869;SDS011;64924;42.140;24.762;2023-08-21T09:45:47;10.00;;;6.47;;
73869;SDS011;64924;42.140;24.762;2023-08-21T09:48:14;11.90;;;4.53;;
73869;SDS011;64924;42.140;24.762;2023-08-21T09:50:41;7.43;;;3.90;;
73869;SDS011;64924;42.140;24.762;2023-08-21T09:53:08;11.18;;;4.53;;
73869;SDS011;64924;42.140;24.762;2023-08-21T09:55:35;5.65;;;4.10;;
73869;SDS011;64924;42.140;24.762;2023-08-21T09:58:03;8.90;;;4.28;;
73869;SDS011;64924;42.140;24.762;2023-08-21T10:00:29;8.65;;;3.88;;
73869;SDS011;64924;42.140;24.762;2023-08-21T10:02:57;9.82;;;5.28;;
73869;SDS011;64924;42.140;24.762;2023-08-21T10:05:26;12.40;;;4.40;;
73869;SDS011;64924;42.140;24.762;2023-08-21T10:07:52;7.32;;;5.20;;
73869;SDS011;64924;42.140;24.762;2023-08-21T10:10:20;7.88;;;4.32;;
73869;SDS011;64924;42.140;24.762;2023-08-21T10:12:46;6.03;;;3.95;;
73869;SDS011;64924;42.140;24.762;2023-08-21T10:15:14;6.40;;;4.03;;
73869;SDS011;64924;42.140;24.762;2023-08-21T10:17:41;7.07;;;4.00;;
73869;SDS011;64924;42.140;24.762;2023-08-21T10:20:08;8.20;;;4.28;;
73869;SDS011;64924;42.140;24.762;2023-08-21T10:22:52;7.90;;;4.00;;
73869;SDS011;64924;42.140;24.762;2023-08-21T10:25:23;9.95;;;4.72;;
73869;SDS011;64924;42.140;24.762;2023-08-21T10:27:59;8.18;;;4.18;;
73869;SDS011;64924;42.140;24.762;2023-08-21T10:30:27;7.90;;;3.67;;
73869;SDS011;64924;42.140;24.762;2023-08-21T10:32:54;5.75;;;3.97;;
73869;SDS011;64924;42.140;24.762;2023-08-21T10:35:25;6.03;;;4.22;;
73869;SDS011;64924;42.140;24.762;2023-08-21T10:38:16;8.57;;;3.95;;
73869;SDS011;64924;42.140;24.762;2023-08-21T10:43:40;6.55;;;3.60;;
73869;SDS011;64924;42.140;24.762;2023-08-21T10:46:11;6.85;;;3.78;;
73869;SDS011;64924;42.140;24.762;2023-08-21T10:48:37;8.63;;;3.63;;
73869;SDS011;64924;42.140;24.762;2023-08-21T10:51:04;10.60;;;4.20;;
73869;SDS011;64924;42.140;24.762;2023-08-21T10:53:32;4.87;;;3.87;;
73869;SDS011;64924;42.140;24.762;2023-08-21T10:56:02;8.75;;;3.95;;
73869;SDS011;64924;42.140;24.762;2023-08-21T10:58:34;7.47;;;4.68;;
73869;SDS011;64924;42.140;24.762;2023-08-21T11:01:12;8.73;;;3.45;;
73869;SDS011;64924;42.140;24.762;2023-08-21T11:03:39;8.75;;;4.90;;
73869;SDS011;64924;42.140;24.762;2023-08-21T11:06:08;6.07;;;3.92;;
73869;SDS011;64924;42.140;24.762;2023-08-21T11:08:35;6.60;;;3.75;;
73869;SDS011;64924;42.140;24.762;2023-08-21T11:11:02;6.85;;;4.10;;
73869;SDS011;64924;42.140;24.762;2023-08-21T11:13:29;6.22;;;3.65;;
73869;SDS011;64924;42.140;24.762;2023-08-21T11:15:58;8.18;;;4.10;;
73869;SDS011;64924;42.140;24.762;2023-08-21T11:18:35;7.47;;;4.32;;
73869;SDS011;64924;42.140;24.762;2023-08-21T11:21:03;8.60;;;3.72;;
73869;SDS011;64924;42.140;24.762;2023-08-21T11:23:33;10.18;;;4.05;;
73869;SDS011;64924;42.140;24.762;2023-08-21T11:25:59;7.90;;;3.60;;
73869;SDS011;64924;42.140;24.762;2023-08-21T11:28:25;7.82;;;3.80;;
73869;SDS011;64924;42.140;24.762;2023-08-21T11:30:54;6.88;;;4.00;;
73869;SDS011;64924;42.140;24.762;2023-08-21T11:33:20;7.28;;;3.67;;
73869;SDS011;64924;42.140;24.762;2023-08-21T11:35:46;6.30;;;3.50;;
73869;SDS011;64924;42.140;24.762;2023-08-21T11:38:16;5.28;;;4.03;;
73869;SDS011;64924;42.140;24.762;2023-08-21T11:40:57;5.43;;;3.80;;
73869;SDS011;64924;42.140;24.762;2023-08-21T11:46:02;8.63;;;4.32;;
73869;SDS011;64924;42.140;24.762;2023-08-21T11:48:29;10.32;;;4.20;;
73869;SDS011;64924;42.140;24.762;2023-08-21T11:50:55;6.65;;;3.90;;
73869;SDS011;64924;42.140;24.762;2023-08-21T11:53:37;8.98;;;3.83;;
73869;SDS011;64924;42.140;24.762;2023-08-21T11:56:13;7.28;;;3.85;;
73869;SDS011;64924;42.140;24.762;2023-08-21T11:58:41;7.55;;;3.88;;
73869;SDS011;64924;42.140;24.762;2023-08-21T12:01:07;10.13;;;4.45;;
73869;SDS011;64924;42.140;24.762;2023-08-21T12:03:37;7.43;;;4.55;;
73869;SDS011;64924;42.140;24.762;2023-08-21T12:06:07;7.03;;;3.83;;
73869;SDS011;64924;42.140;24.762;2023-08-21T12:08:33;8.35;;;3.88;;
73869;SDS011;64924;42.140;24.762;2023-08-21T12:10:59;6.10;;;4.05;;
73869;SDS011;64924;42.140;24.762;2023-08-21T12:13:24;10.73;;;4.07;;
73869;SDS011;64924;42.140;24.762;2023-08-21T12:15:50;9.27;;;4.40;;
73869;SDS011;64924;42.140;24.762;2023-08-21T12:18:15;11.35;;;4.68;;
73869;SDS011;64924;42.140;24.762;2023-08-21T12:20:41;9.55;;;4.65;;
73869;SDS011;64924;42.140;24.762;2023-08-21T12:23:06;10.10;;;4.50;;
73869;SDS011;64924;42.140;24.762;2023-08-21T12:25:32;8.65;;;4.72;;
73869;SDS011;64924;42.140;24.762;2023-08-21T12:27:58;10.27;;;4.78;;
73869;SDS011;64924;42.140;24.762;2023-08-21T12:30:23;13.70;;;4.47;;
73869;SDS011;64924;42.140;24.762;2023-08-21T12:32:49;9.18;;;4.50;;
73869;SDS011;64924;42.140;24.762;2023-08-21T12:35:14;11.05;;;4.45;;
73869;SDS011;64924;42.140;24.762;2023-08-21T12:37:40;10.52;;;4.50;;
73869;SDS011;64924;42.140;24.762;2023-08-21T12:40:06;7.50;;;4.57;;
73869;SDS011;64924;42.140;24.762;2023-08-21T12:42:32;9.30;;;4.70;;
73869;SDS011;64924;42.140;24.762;2023-08-21T12:44:57;8.98;;;4.97;;
73869;SDS011;64924;42.140;24.762;2023-08-21T12:47:23;8.40;;;4.22;;
73869;SDS011;64924;42.140;24.762;2023-08-21T12:49:49;7.10;;;3.85;;
73869;SDS011;64924;42.140;24.762;2023-08-21T12:52:17;5.63;;;4.47;;
73869;SDS011;64924;42.140;24.762;2023-08-21T12:54:48;6.20;;;4.53;;
73869;SDS011;64924;42.140;24.762;2023-08-21T12:57:14;8.15;;;4.80;;
73869;SDS011;64924;42.140;24.762;2023-08-21T12:59:42;7.47;;;4.65;;
73869;SDS011;64924;42.140;24.762;2023-08-21T13:02:08;23.67;;;5.13;;
73869;SDS011;64924;42.140;24.762;2023-08-21T13:04:34;13.55;;;4.85;;
73869;SDS011;64924;42.140;24.762;2023-08-21T13:07:00;5.38;;;3.88;;
73869;SDS011;64924;42.140;24.762;2023-08-21T13:09:26;10.85;;;4.45;;
73869;SDS011;64924;42.140;24.762;2023-08-21T13:11:53;6.88;;;3.83;;
73869;SDS011;64924;42.140;24.762;2023-08-21T13:14:19;8.75;;;4.40;;
73869;SDS011;64924;42.140;24.762;2023-08-21T13:16:44;10.30;;;4.25;;
73869;SDS011;64924;42.140;24.762;2023-08-21T13:19:11;13.13;;;3.80;;
73869;SDS011;64924;42.140;24.762;2023-08-21T13:21:36;8.90;;;4.18;;
73869;SDS011;64924;42.140;24.762;2023-08-21T13:24:02;7.50;;;3.40;;
73869;SDS011;64924;42.140;24.762;2023-08-21T13:26:28;8.52;;;4.45;;
73869;SDS011;64924;42.140;24.762;2023-08-21T13:28:54;10.93;;;4.20;;
73869;SDS011;64924;42.140;24.762;2023-08-21T13:31:20;13.10;;;4.38;;
73869;SDS011;64924;42.140;24.762;2023-08-21T13:33:46;7.43;;;4.55;;
73869;SDS011;64924;42.140;24.762;2023-08-21T13:36:15;7.00;;;4.30;;
73869;SDS011;64924;42.140;24.762;2023-08-21T13:38:41;6.88;;;4.68;;
73869;SDS011;64924;42.140;24.762;2023-08-21T13:41:07;9.13;;;4.28;;
73869;SDS011;64924;42.140;24.762;2023-08-21T13:43:33;8.40;;;4.38;;
73869;SDS011;64924;42.140;24.762;2023-08-21T13:46:02;8.25;;;5.05;;
73869;SDS011;64924;42.140;24.762;2023-08-21T13:48:34;11.40;;;5.38;;
73869;SDS011;64924;42.140;24.762;2023-08-21T13:50:59;8.65;;;5.88;;
73869;SDS011;64924;42.140;24.762;2023-08-21T13:53:25;9.15;;;5.93;;
73869;SDS011;64924;42.140;24.762;2023-08-21T13:55:50;9.45;;;5.13;;
73869;SDS011;64924;42.140;24.762;2023-08-21T13:58:16;10.02;;;5.30;;
73869;SDS011;64924;42.140;24.762;2023-08-21T14:00:42;9.93;;;5.53;;
73869;SDS011;64924;42.140;24.762;2023-08-21T14:03:07;11.80;;;6.28;;
73869;SDS011;64924;42.140;24.762;2023-08-21T14:05:33;7.70;;;5.28;;
73869;SDS011;64924;42.140;24.762;2023-08-21T14:07:59;8.60;;;4.60;;
73869;SDS011;64924;42.140;24.762;2023-08-21T14:10:25;8.65;;;4.95;;
73869;SDS011;64924;42.140;24.762;2023-08-21T14:12:51;7.97;;;4.68;;
73869;SDS011;64924;42.140;24.762;2023-08-21T14:15:17;12.02;;;5.00;;
73869;SDS011;64924;42.140;24.762;2023-08-21T14:17:46;9.77;;;5.47;;
73869;SDS011;64924;42.140;24.762;2023-08-21T14:20:11;7.43;;;4.45;;
73869;SDS011;64924;42.140;24.762;2023-08-21T14:22:37;9.77;;;5.38;;
73869;SDS011;64924;42.140;24.762;2023-08-21T14:25:03;8.75;;;4.90;;
73869;SDS011;64924;42.140;24.762;2023-08-21T14:27:31;10.00;;;6.28;;
73869;SDS011;64924;42.140;24.762;2023-08-21T14:29:58;15.63;;;10.70;;
73869;SDS011;64924;42.140;24.762;2023-08-21T14:32:24;9.23;;;7.03;;
73869;SDS011;64924;42.140;24.762;2023-08-21T14:34:50;12.57;;;8.13;;